Time,TemperatureF,DewpointF,PressureIn,WindDirection,WindDirectionDegrees,WindSpeedMPH,WindSpeedGustMPH,Humidity,HourlyPrecipIn,Conditions,Clouds,dailyrainin,SoftwareType,DateUTC
2013-01-22 00:12:00,24.3,13.0,30.30,North,5,3.0,9.0,63,0.00,,,0.00,weatherlink.com 1.10,2013-01-22 06:12:00,
2013-01-22 00:27:00,24.3,13.0,30.30,North,360,4.0,10.0,63,0.00,,,0.00,weatherlink.com 1.10,2013-01-22 06:27:00,
2013-01-22 00:42:00,24.0,12.0,30.30,NNE,20,6.0,12.0,61,0.00,,,0.00,weatherlink.com 1.10,2013-01-22 06:42:00,
2013-01-22 00:57:00,23.6,11.0,30.31,North,350,4.0,9.0,60,0.00,,,0.00,weatherlink.com 1.10,2013-01-22 06:57:00,
2013-01-22 01:12:00,23.4,11.0,30.31,NNE,26,4.0,9.0,60,0.00,,,0.00,weatherlink.com 1.10,2013-01-22 07:12:00,
2013-01-22 01:27:00,23.1,10.0,30.31,NNW,347,2.0,10.0,58,0.00,,,0.00,weatherlink.com 1.10,2013-01-22 07:27:00,
2013-01-22 01:42:00,22.8,10.0,30.32,North,5,6.0,12.0,58,0.00,,,0.00,weatherlink.com 1.10,2013-01-22 07:42:00,
2013-01-22 01:57:00,22.7,10.0,30.32,NNE,12,3.0,11.0,59,0.00,,,0.00,weatherlink.com 1.10,2013-01-22 07:57:00,
2013-01-22 02:12:00,22.4,9.0,30.32,NNE,24,3.0,11.0,57,0.00,,,0.00,weatherlink.com 1.10,2013-01-22 08:12:00,
2013-01-22 02:27:00,22.2,9.0,30.32,ENE,61,3.0,6.0,56,0.00,,,0.00,weatherlink.com 1.10,2013-01-22 08:27:00,
2013-01-22 02:42:00,22.1,9.0,30.33,North,9,4.0,5.0,57,0.00,,,0.00,weatherlink.com 1.10,2013-01-22 08:42:00,
2013-01-22 02:57:00,21.9,8.0,30.33,NNW,341,6.0,10.0,55,0.00,,,0.00,weatherlink.com 1.10,2013-01-22 08:57:00,
2013-01-22 03:12:00,21.7,8.0,30.32,North,360,3.0,7.0,55,0.00,,,0.00,weatherlink.com 1.10,2013-01-22 09:12:00,
2013-01-22 03:27:00,21.6,8.0,30.32,NNE,15,6.0,8.0,55,0.00,,,0.00,weatherlink.com 1.10,2013-01-22 09:27:00,
2013-01-22 03:42:00,21.5,6.0,30.31,NE,45,4.0,9.0,51,0.00,,,0.00,weatherlink.com 1.10,2013-01-22 09:42:00,
2013-01-22 03:58:00,21.1,5.0,30.32,North,5,2.0,10.0,51,0.00,,,0.00,weatherlink.com 1.10,2013-01-22 09:58:00,
2013-01-22 04:13:00,20.4,5.0,30.33,NNE,16,4.0,6.0,51,0.00,,,0.00,weatherlink.com 1.10,2013-01-22 10:13:00,
2013-01-22 04:28:00,19.7,6.0,30.34,NNW,342,1.0,7.0,55,0.00,,,0.00,weatherlink.com 1.10,2013-01-22 10:28:00,
2013-01-22 04:43:00,19.3,6.0,30.34,NNW,338,1.0,5.0,57,0.00,,,0.00,weatherlink.com 1.10,2013-01-22 10:43:00,
2013-01-22 04:58:00,19.0,6.0,30.34,NNE,13,2.0,8.0,58,0.00,,,0.00,weatherlink.com 1.10,2013-01-22 10:58:00,
2013-01-22 05:13:00,18.6,6.0,30.35,NNE,15,1.0,6.0,59,0.00,,,0.00,weatherlink.com 1.10,2013-01-22 11:13:00,
2013-01-22 05:28:00,18.2,7.0,30.35,NE,49,1.0,4.0,61,0.00,,,0.00,weatherlink.com 1.10,2013-01-22 11:28:00,
2013-01-22 05:43:00,18.4,8.0,30.36,North,5,3.0,6.0,64,0.00,,,0.00,weatherlink.com 1.10,2013-01-22 11:43:00,
2013-01-22 05:58:00,18.8,8.0,30.36,NE,56,6.0,8.0,62,0.00,,,0.00,weatherlink.com 1.10,2013-01-22 11:58:00,
2013-01-22 06:13:00,18.6,7.0,30.36,NNE,26,1.0,6.0,61,0.00,,,0.00,weatherlink.com 1.10,2013-01-22 12:13:00,
2013-01-22 06:28:00,18.7,7.0,30.37,ENE,61,3.0,7.0,60,0.00,,,0.00,weatherlink.com 1.10,2013-01-22 12:28:00,
2013-01-22 06:43:00,18.7,6.0,30.38,North,355,3.0,9.0,57,0.00,,,0.00,weatherlink.com 1.10,2013-01-22 12:43:00,
2013-01-22 06:58:00,18.6,6.0,30.38,North,360,1.0,6.0,57,0.00,,,0.00,weatherlink.com 1.10,2013-01-22 12:58:00,
2013-01-22 07:13:00,18.8,7.0,30.38,NNE,32,2.0,5.0,60,0.00,,,0.00,weatherlink.com 1.10,2013-01-22 13:13:00,
2013-01-22 07:28:00,18.9,7.0,30.38,NE,51,4.0,8.0,59,0.00,,,0.00,weatherlink.com 1.10,2013-01-22 13:28:00,
2013-01-22 07:43:00,19.0,7.0,30.38,NNE,32,3.0,7.0,59,0.00,,,0.00,weatherlink.com 1.10,2013-01-22 13:43:00,
2013-01-22 07:58:00,19.3,7.0,30.38,East,79,2.0,6.0,59,0.00,,,0.00,weatherlink.com 1.10,2013-01-22 13:58:00,
2013-01-22 08:13:00,19.5,7.0,30.39,NE,47,3.0,8.0,59,0.00,,,0.00,weatherlink.com 1.10,2013-01-22 14:13:00,
2013-01-22 08:28:00,19.8,7.0,30.40,North,9,2.0,5.0,58,0.00,,,0.00,weatherlink.com 1.10,2013-01-22 14:28:00,
2013-01-22 08:43:00,20.0,5.0,30.41,North,11,3.0,7.0,53,0.00,,,0.00,weatherlink.com 1.10,2013-01-22 14:43:00,
2013-01-22 08:58:00,20.3,6.0,30.41,NNE,22,3.0,6.0,55,0.00,,,0.00,weatherlink.com 1.10,2013-01-22 14:58:00,
2013-01-22 09:13:00,20.5,7.0,30.41,NE,41,5.0,8.0,56,0.00,,,0.00,weatherlink.com 1.10,2013-01-22 15:13:00,
2013-01-22 09:28:00,21.0,6.0,30.41,East,80,2.0,5.0,52,0.00,,,0.00,weatherlink.com 1.10,2013-01-22 15:28:00,
2013-01-22 09:44:00,21.3,6.0,30.42,East,80,3.0,8.0,51,0.00,,,0.00,weatherlink.com 1.10,2013-01-22 15:44:00,
2013-01-22 09:59:00,21.4,5.0,30.42,ENE,74,0.0,7.0,49,0.00,,,0.00,weatherlink.com 1.10,2013-01-22 15:59:00,
2013-01-22 10:15:00,21.8,5.0,30.42,ESE,117,2.0,5.0,48,0.00,,,0.00,weatherlink.com 1.10,2013-01-22 16:15:00,
2013-01-22 10:29:00,22.0,3.0,30.43,North,5,3.0,7.0,43,0.00,,,0.00,weatherlink.com 1.10,2013-01-22 16:29:00,
2013-01-22 10:44:00,22.5,4.0,30.41,ESE,110,4.0,8.0,44,0.00,,,0.00,weatherlink.com 1.10,2013-01-22 16:44:00,
2013-01-22 10:59:00,22.8,4.0,30.41,ENE,59,1.0,6.0,45,0.00,,,0.00,weatherlink.com 1.10,2013-01-22 16:59:00,
2013-01-22 11:14:00,23.2,2.0,30.41,NNE,15,3.0,5.0,40,0.00,,,0.00,weatherlink.com 1.10,2013-01-22 17:14:00,
2013-01-22 11:29:00,23.5,2.0,30.41,NE,38,5.0,7.0,40,0.00,,,0.00,weatherlink.com 1.10,2013-01-22 17:29:00,
2013-01-22 11:44:00,23.8,5.0,30.40,ENE,73,3.0,5.0,44,0.00,,,0.00,weatherlink.com 1.10,2013-01-22 17:44:00,
2013-01-22 11:59:00,24.8,5.0,30.39,East,83,6.0,8.0,42,0.00,,,0.00,weatherlink.com 1.10,2013-01-22 17:59:00,
2013-01-22 12:14:00,25.0,4.0,30.39,NE,38,3.0,9.0,40,0.00,,,0.00,weatherlink.com 1.10,2013-01-22 18:14:00,
2013-01-22 12:29:00,25.9,5.0,30.38,North,350,7.0,8.0,40,0.00,,,0.00,weatherlink.com 1.10,2013-01-22 18:29:00,
2013-01-22 12:44:00,25.4,4.0,30.38,NE,39,0.0,7.0,39,0.00,,,0.00,weatherlink.com 1.10,2013-01-22 18:44:00,
2013-01-22 12:59:00,25.6,3.0,30.36,North,355,1.0,7.0,37,0.00,,,0.00,weatherlink.com 1.10,2013-01-22 18:59:00,
2013-01-22 13:14:00,26.5,5.0,30.36,NE,41,3.0,6.0,39,0.00,,,0.00,weatherlink.com 1.10,2013-01-22 19:14:00,
2013-01-22 13:29:00,26.0,3.0,30.36,North,9,5.0,8.0,38,0.00,,,0.00,weatherlink.com 1.10,2013-01-22 19:29:00,
2013-01-22 13:44:00,27.2,5.0,30.36,NNE,22,2.0,6.0,39,0.00,,,0.00,weatherlink.com 1.10,2013-01-22 19:44:00,
2013-01-22 13:59:00,27.3,5.0,30.37,NNE,19,4.0,5.0,39,0.00,,,0.00,weatherlink.com 1.10,2013-01-22 19:59:00,
2013-01-22 14:14:00,27.3,5.0,30.37,NNE,13,3.0,5.0,39,0.00,,,0.00,weatherlink.com 1.10,2013-01-22 20:14:00,
2013-01-22 14:29:00,27.0,5.0,30.36,NW,311,0.0,5.0,39,0.00,,,0.00,weatherlink.com 1.10,2013-01-22 20:29:00,
2013-01-22 14:44:00,26.4,4.0,30.36,North,5,2.0,7.0,38,0.00,,,0.00,weatherlink.com 1.10,2013-01-22 20:44:00,
2013-01-22 14:59:00,26.5,4.0,30.36,ENE,63,1.0,5.0,38,0.00,,,0.00,weatherlink.com 1.10,2013-01-22 20:59:00,
2013-01-22 15:14:00,26.7,5.0,30.36,North,360,0.0,4.0,40,0.00,,,0.00,weatherlink.com 1.10,2013-01-22 21:14:00,
2013-01-22 15:29:00,26.5,5.0,30.36,NNW,344,0.0,4.0,39,0.00,,,0.00,weatherlink.com 1.10,2013-01-22 21:29:00,
2013-01-22 15:44:00,26.4,5.0,30.36,NNW,344,0.0,2.0,40,0.00,,,0.00,weatherlink.com 1.10,2013-01-22 21:44:00,
2013-01-22 15:59:00,26.4,6.0,30.36,NNW,344,0.0,1.0,41,0.00,,,0.00,weatherlink.com 1.10,2013-01-22 21:59:00,
2013-01-22 16:14:00,26.3,5.0,30.36,NNW,344,0.0,2.0,41,0.00,,,0.00,weatherlink.com 1.10,2013-01-22 22:14:00,
2013-01-22 16:29:00,26.2,5.0,30.36,NNW,344,0.0,2.0,40,0.00,,,0.00,weatherlink.com 1.10,2013-01-22 22:29:00,
2013-01-22 16:44:00,26.2,5.0,30.36,NNW,344,0.0,2.0,41,0.00,,,0.00,weatherlink.com 1.10,2013-01-22 22:44:00,
2013-01-22 16:59:00,26.3,6.0,30.36,NNW,344,0.0,1.0,43,0.00,,,0.00,weatherlink.com 1.10,2013-01-22 22:59:00,
2013-01-22 17:14:00,26.2,6.0,30.35,NNW,344,1.0,2.0,43,0.00,,,0.00,weatherlink.com 1.10,2013-01-22 23:14:00,
2013-01-22 17:29:00,26.2,6.0,30.35,NNW,344,0.0,2.0,43,0.00,,,0.00,weatherlink.com 1.10,2013-01-22 23:29:00,
2013-01-22 17:44:00,26.2,7.0,30.35,NNW,344,1.0,2.0,44,0.00,,,0.00,weatherlink.com 1.10,2013-01-22 23:44:00,
2013-01-22 17:59:00,26.1,7.0,30.35,NNW,344,0.0,3.0,45,0.00,,,0.00,weatherlink.com 1.10,2013-01-22 23:59:00,
2013-01-22 18:14:00,26.2,7.0,30.35,NNW,344,2.0,2.0,45,0.00,,,0.00,weatherlink.com 1.10,2013-01-23 00:14:00,
2013-01-22 18:29:00,26.1,7.0,30.35,NNW,344,0.0,3.0,44,0.00,,,0.00,weatherlink.com 1.10,2013-01-23 00:29:00,
2013-01-22 18:44:00,26.2,8.0,30.34,NNW,344,3.0,3.0,46,0.00,,,0.00,weatherlink.com 1.10,2013-01-23 00:44:00,
2013-01-22 18:59:00,26.0,7.0,30.34,NNW,348,1.0,3.0,45,0.00,,,0.00,weatherlink.com 1.10,2013-01-23 00:59:00,
2013-01-22 19:14:00,26.0,7.0,30.34,NNW,348,0.0,3.0,45,0.00,,,0.00,weatherlink.com 1.10,2013-01-23 01:14:00,
2013-01-22 19:29:00,26.0,7.0,30.34,NNW,348,0.0,2.0,44,0.00,,,0.00,weatherlink.com 1.10,2013-01-23 01:29:00,
2013-01-22 19:44:00,26.0,8.0,30.34,NNW,348,0.0,2.0,47,0.00,,,0.00,weatherlink.com 1.10,2013-01-23 01:44:00,
2013-01-22 19:59:00,25.9,8.0,30.34,NNW,348,1.0,2.0,46,0.00,,,0.00,weatherlink.com 1.10,2013-01-23 01:59:00,
2013-01-22 20:14:00,26.0,8.0,30.34,NNW,348,0.0,4.0,46,0.00,,,0.00,weatherlink.com 1.10,2013-01-23 02:14:00,
2013-01-22 20:29:00,26.0,9.0,30.34,North,349,1.0,2.0,48,0.00,,,0.00,weatherlink.com 1.10,2013-01-23 02:29:00,
2013-01-22 20:59:00,25.9,9.0,30.34,North,349,1.0,2.0,48,0.00,,,0.00,weatherlink.com 1.10,2013-01-23 02:59:00,
2013-01-22 21:14:00,25.9,9.0,30.35,North,349,2.0,4.0,50,0.00,,,0.00,weatherlink.com 1.10,2013-01-23 03:14:00,
2013-01-22 21:29:00,25.8,8.0,30.35,North,351,1.0,3.0,47,0.00,,,0.00,weatherlink.com 1.10,2013-01-23 03:29:00,
2013-01-22 21:44:00,25.7,8.0,30.35,North,351,1.0,3.0,47,0.00,,,0.00,weatherlink.com 1.10,2013-01-23 03:44:00,
2013-01-22 21:59:00,25.6,9.0,30.35,ENE,69,1.0,3.0,49,0.00,,,0.00,weatherlink.com 1.10,2013-01-23 03:59:00,
2013-01-22 22:14:00,25.2,8.0,30.35,ENE,69,0.0,3.0,48,0.00,,,0.00,weatherlink.com 1.10,2013-01-23 04:14:00,
2013-01-22 22:29:00,24.9,8.0,30.35,ENE,69,2.0,3.0,49,0.00,,,0.00,weatherlink.com 1.10,2013-01-23 04:29:00,
2013-01-22 22:44:00,24.3,8.0,30.35,ENE,69,0.0,2.0,51,0.00,,,0.00,weatherlink.com 1.10,2013-01-23 04:44:00,
2013-01-22 22:59:00,24.0,8.0,30.35,ENE,69,0.0,2.0,51,0.00,,,0.00,weatherlink.com 1.10,2013-01-23 04:59:00,
2013-01-22 23:14:00,23.5,9.0,30.35,ENE,69,0.0,2.0,55,0.00,,,0.00,weatherlink.com 1.10,2013-01-23 05:14:00,
2013-01-22 23:29:00,22.9,11.0,30.35,ENE,69,1.0,1.0,60,0.00,,,0.00,weatherlink.com 1.10,2013-01-23 05:29:00,
2013-01-22 23:44:00,22.5,11.0,30.35,ENE,69,0.0,2.0,61,0.00,,,0.00,weatherlink.com 1.10,2013-01-23 05:44:00,
2013-01-22 23:59:00,22.5,11.0,30.35,ENE,69,0.0,2.0,62,0.00,,,0.00,weatherlink.com 1.10,2013-01-23 05:59:00,